createdAt,value
2023-05-15T00:00:55.072Z,69.48
2023-05-15T00:01:55.034Z,69.88
2023-05-15T00:02:55.103Z,69.98
2023-05-15T00:03:55.186Z,70.08
2023-05-15T00:04:55.036Z,69.88
2023-05-15T00:05:55.007Z,70.18
2023-05-15T00:06:55.032Z,69.78
2023-05-15T00:07:54.972Z,69.98
2023-05-15T00:08:54.957Z,69.98
2023-05-15T00:09:54.943Z,69.98
2023-05-15T00:11:01.390Z,69.88
2023-05-15T00:11:55.949Z,69.68
2023-05-15T00:12:54.931Z,70.08
2023-05-15T00:13:54.933Z,69.78
2023-05-15T00:14:54.912Z,69.78
2023-05-15T00:15:54.902Z,69.88
2023-05-15T00:16:54.885Z,69.98
2023-05-15T00:17:54.916Z,69.88
2023-05-15T00:18:54.899Z,69.92
2023-05-15T00:19:54.865Z,70.12
2023-05-15T00:20:54.870Z,69.88
2023-05-15T00:21:54.827Z,70.52
2023-05-15T00:22:54.798Z,70.12
2023-05-15T00:23:54.800Z,70.12
2023-05-15T00:24:54.801Z,70.52
2023-05-15T00:25:54.814Z,70.32
2023-05-15T00:26:54.847Z,70.62
2023-05-15T00:27:54.766Z,70.52
2023-05-15T00:28:54.757Z,70.32
2023-05-15T00:29:54.755Z,70.62
2023-05-15T00:30:54.747Z,70.42
2023-05-15T00:31:54.904Z,70.21
2023-05-15T00:32:54.755Z,70.83
2023-05-15T00:33:54.709Z,70.52
2023-05-15T00:34:54.680Z,70.21
2023-05-15T00:35:54.679Z,70.52
2023-05-15T00:36:54.657Z,70.52
2023-05-15T00:37:54.667Z,70.62
2023-05-15T00:38:54.654Z,70.42
2023-05-15T00:39:54.666Z,70.52
2023-05-15T00:40:54.647Z,70.42
2023-05-15T00:41:54.616Z,70.52
2023-05-15T00:42:54.592Z,70.52
2023-05-15T00:43:54.575Z,70.32
2023-05-15T00:44:54.591Z,69.81
2023-05-15T00:45:54.578Z,69.92
2023-05-15T00:46:54.656Z,70.01
2023-05-15T00:47:54.666Z,69.81
2023-05-15T00:48:54.557Z,69.92
2023-05-15T00:49:54.528Z,70.12
2023-05-15T00:50:54.508Z,69.92
2023-05-15T00:51:54.491Z,69.61
2023-05-15T00:52:54.488Z,69.20
2023-05-15T00:53:54.570Z,69.51
2023-05-15T00:54:54.475Z,69.64
2023-05-15T00:55:54.469Z,69.95
2023-05-15T00:56:54.436Z,70.59
2023-05-15T00:57:54.465Z,71.30
2023-05-15T00:58:54.448Z,71.40
2023-05-15T00:59:54.429Z,71.84
2023-05-15T01:00:54.439Z,71.70
2023-05-15T01:01:54.400Z,71.91
2023-05-15T01:02:54.522Z,71.91
2023-05-15T01:03:54.415Z,71.91
2023-05-15T01:04:54.353Z,71.60
2023-05-15T01:05:54.334Z,71.00
2023-05-15T01:06:54.327Z,70.39
2023-05-15T01:07:54.315Z,70.65
2023-05-15T01:08:54.312Z,70.86
2023-05-15T01:09:54.338Z,70.79
2023-05-15T01:10:54.297Z,70.56
2023-05-15T01:11:54.279Z,71.09
2023-05-15T01:12:54.276Z,70.79
2023-05-15T01:13:54.244Z,71.09
2023-05-15T01:14:54.234Z,71.30
2023-05-15T01:15:54.237Z,71.40
2023-05-15T01:16:54.229Z,71.60
2023-05-15T01:17:54.246Z,71.70
2023-05-15T01:18:54.304Z,71.80
2023-05-15T01:19:54.550Z,71.91
2023-05-15T01:20:54.169Z,71.88
2023-05-15T01:21:54.173Z,71.91
2023-05-15T01:22:54.174Z,71.91
2023-05-15T01:23:54.138Z,72.21
2023-05-15T01:24:54.149Z,71.77
2023-05-15T01:25:54.148Z,71.50
2023-05-15T01:26:54.133Z,71.09
2023-05-15T01:27:54.103Z,71.16
2023-05-15T01:28:54.136Z,71.47
2023-05-15T01:29:54.072Z,71.16
2023-05-15T01:30:54.086Z,71.06
2023-05-15T01:31:54.133Z,71.16
2023-05-15T01:32:54.091Z,71.26
2023-05-15T01:33:54.087Z,71.06
2023-05-15T01:34:54.074Z,71.06
2023-05-15T01:35:54.056Z,70.45
2023-05-15T01:36:54.005Z,70.35
2023-05-15T01:37:54.030Z,70.96
2023-05-15T01:38:53.979Z,70.89
2023-05-15T01:39:54.009Z,71.20
2023-05-15T01:40:53.984Z,71.70
2023-05-15T01:41:53.970Z,71.50
2023-05-15T01:42:53.928Z,72.04
2023-05-15T01:43:53.912Z,71.80
2023-05-15T01:44:53.923Z,71.80
2023-05-15T01:45:53.924Z,71.60
2023-05-15T01:46:53.989Z,71.70
2023-05-15T01:47:53.918Z,71.91
2023-05-15T01:48:53.868Z,72.01
2023-05-15T01:49:53.862Z,71.80
2023-05-15T01:50:53.868Z,71.91
2023-05-15T01:51:53.826Z,71.40
2023-05-15T01:52:53.854Z,71.94
2023-05-15T01:53:53.814Z,71.53
2023-05-15T01:54:53.798Z,72.45
2023-05-15T01:55:53.815Z,71.84
2023-05-15T01:56:53.797Z,71.84
2023-05-15T01:57:53.793Z,71.64
2023-05-15T01:58:54.304Z,72.34
2023-05-15T01:59:53.739Z,72.55
2023-05-15T02:00:53.749Z,71.64
2023-05-15T02:01:53.802Z,71.44
2023-05-15T02:02:53.747Z,72.14
2023-05-15T02:03:53.781Z,71.73
2023-05-15T02:04:53.677Z,71.44
2023-05-15T02:05:53.686Z,72.38
2023-05-15T02:06:53.773Z,71.44
2023-05-15T02:07:53.664Z,71.33
2023-05-15T02:08:53.662Z,71.53
2023-05-15T02:09:53.630Z,71.84
2023-05-15T02:10:53.621Z,71.73
2023-05-15T02:11:53.602Z,71.23
2023-05-15T02:13:01.217Z,70.52
2023-05-15T02:13:53.592Z,70.83
2023-05-15T02:14:53.588Z,71.64
2023-05-15T02:15:53.585Z,71.53
2023-05-15T02:16:53.553Z,71.64
2023-05-15T02:17:53.586Z,71.53
2023-05-15T02:18:53.637Z,71.84
2023-05-15T02:19:53.530Z,71.53
2023-05-15T02:20:53.507Z,71.44
2023-05-15T02:21:53.546Z,71.64
2023-05-15T02:22:53.500Z,71.44
2023-05-15T02:23:53.480Z,71.03
2023-05-15T02:24:53.469Z,70.92
2023-05-15T02:25:53.474Z,70.72
2023-05-15T02:26:53.465Z,71.23
2023-05-15T02:27:53.439Z,71.33
2023-05-15T02:28:53.486Z,71.03
2023-05-15T02:29:53.421Z,71.33
2023-05-15T02:30:53.398Z,71.13
2023-05-15T02:31:53.500Z,71.13
2023-05-15T02:32:53.398Z,71.73
2023-05-15T02:33:53.364Z,71.44
2023-05-15T02:34:53.374Z,71.33
2023-05-15T02:35:53.370Z,70.92
2023-05-15T02:36:53.346Z,70.92
2023-05-15T02:37:53.341Z,71.03
2023-05-15T02:38:53.401Z,71.33
2023-05-15T02:39:53.297Z,71.13
2023-05-15T02:40:53.325Z,71.77
2023-05-15T02:41:53.303Z,72.28
2023-05-15T02:42:53.294Z,71.26
2023-05-15T02:43:53.272Z,71.94
2023-05-15T02:44:53.238Z,71.97
2023-05-15T02:45:53.277Z,71.67
2023-05-15T02:46:53.278Z,72.28
2023-05-15T02:47:53.271Z,72.17
2023-05-15T02:48:53.226Z,71.67
2023-05-15T02:49:53.187Z,71.36
2023-05-15T02:50:53.181Z,72.04
2023-05-15T02:51:53.171Z,71.13
2023-05-15T02:52:53.172Z,71.67
2023-05-15T02:53:53.157Z,71.77
2023-05-15T02:54:53.150Z,71.57
2023-05-15T02:55:53.152Z,72.08
2023-05-15T02:56:53.109Z,71.57
2023-05-15T02:57:53.100Z,72.17
2023-05-15T02:58:53.108Z,71.88
2023-05-15T02:59:53.087Z,71.47
2023-05-15T03:00:53.135Z,72.38
2023-05-15T03:01:53.050Z,71.94
2023-05-15T03:02:53.053Z,71.44
2023-05-15T03:03:53.075Z,71.73
2023-05-15T03:04:53.018Z,71.67
2023-05-15T03:05:53.022Z,71.94
2023-05-15T03:06:53.018Z,72.14
2023-05-15T03:07:52.982Z,72.14
2023-05-15T03:08:52.969Z,71.97
2023-05-15T03:09:53.318Z,72.17
2023-05-15T03:10:52.998Z,71.50
2023-05-15T03:11:52.956Z,71.77
2023-05-15T03:12:52.957Z,72.28
2023-05-15T03:13:52.915Z,72.17
2023-05-15T03:14:52.902Z,71.77
2023-05-15T03:15:52.925Z,71.57
2023-05-15T03:16:52.950Z,72.38
2023-05-15T03:17:52.961Z,72.28
2023-05-15T03:18:52.905Z,72.48
2023-05-15T03:19:52.857Z,72.65
2023-05-15T03:20:52.864Z,72.17
2023-05-15T03:21:52.860Z,72.38
2023-05-15T03:22:52.839Z,72.14
2023-05-15T03:23:52.841Z,72.55
2023-05-15T03:24:52.794Z,72.65
2023-05-15T03:25:52.847Z,72.25
2023-05-15T03:26:52.793Z,71.53
2023-05-15T03:27:52.813Z,72.34
2023-05-15T03:28:52.765Z,72.55
2023-05-15T03:29:52.750Z,71.84
2023-05-15T03:30:52.815Z,71.94
2023-05-15T03:31:52.805Z,71.73
2023-05-15T03:32:52.734Z,71.64
2023-05-15T03:33:52.733Z,71.73
2023-05-15T03:34:52.712Z,71.70
2023-05-15T03:35:52.692Z,72.04
2023-05-15T03:36:52.677Z,71.73
2023-05-15T03:37:52.665Z,71.64
2023-05-15T03:38:52.649Z,71.73
2023-05-15T03:39:52.675Z,71.64
2023-05-15T03:40:52.631Z,72.04
2023-05-15T03:41:52.608Z,71.44
2023-05-15T03:42:52.616Z,72.04
2023-05-15T03:43:52.614Z,71.67
2023-05-15T03:44:52.584Z,72.45
2023-05-15T03:45:52.589Z,72.38
2023-05-15T03:46:52.645Z,72.55
2023-05-15T03:47:52.703Z,72.65
2023-05-15T03:48:52.545Z,72.34
2023-05-15T03:49:52.518Z,72.65
2023-05-15T03:50:52.522Z,72.65
2023-05-15T03:51:52.552Z,72.65
2023-05-15T03:52:52.502Z,72.45
2023-05-15T03:53:52.475Z,72.45
2023-05-15T03:54:52.474Z,72.55
2023-05-15T03:55:52.454Z,72.65
2023-05-15T03:56:52.462Z,72.55
2023-05-15T03:57:52.459Z,72.25
2023-05-15T03:58:52.441Z,72.34
2023-05-15T03:59:52.409Z,72.25
2023-05-15T04:00:52.422Z,71.84
2023-05-15T04:02:04.432Z,71.84
2023-05-15T04:02:53.436Z,72.85
2023-05-15T04:03:52.381Z,72.65
2023-05-15T04:04:52.432Z,72.99
2023-05-15T04:05:52.393Z,72.96
2023-05-15T04:06:52.337Z,72.85
2023-05-15T04:07:52.337Z,72.85
2023-05-15T04:08:52.328Z,72.65
2023-05-15T04:09:52.305Z,72.34
2023-05-15T04:10:52.311Z,71.80
2023-05-15T04:11:52.276Z,72.31
2023-05-15T04:12:52.308Z,72.41
2023-05-15T04:13:52.279Z,72.21
2023-05-15T04:14:52.274Z,71.50
2023-05-15T04:15:52.244Z,72.41
2023-05-15T04:16:52.288Z,71.80
2023-05-15T04:17:52.277Z,72.31
2023-05-15T04:18:52.276Z,72.41
2023-05-15T04:19:52.202Z,72.52
2023-05-15T04:20:52.222Z,72.52
2023-05-15T04:21:52.193Z,72.65
2023-05-15T04:22:52.159Z,72.01
2023-05-15T04:23:52.145Z,71.64
2023-05-15T04:24:52.144Z,72.61
2023-05-15T04:25:52.125Z,71.60
2023-05-15T04:26:52.178Z,72.31
2023-05-15T04:27:52.116Z,72.52
2023-05-15T04:29:02.789Z,72.41
2023-05-15T04:29:53.100Z,71.80
2023-05-15T04:30:52.110Z,72.41
2023-05-15T04:31:52.118Z,71.60
2023-05-15T04:32:52.159Z,72.31
2023-05-15T04:33:52.037Z,71.91
2023-05-15T04:34:52.040Z,72.01
2023-05-15T04:35:52.028Z,72.11
2023-05-15T04:36:52.016Z,72.61
2023-05-15T04:37:52.040Z,72.52
2023-05-15T04:38:51.993Z,72.61
2023-05-15T04:39:52.049Z,72.01
2023-05-15T04:40:51.956Z,72.38
2023-05-15T04:41:51.955Z,72.38
2023-05-15T04:42:51.963Z,71.37
2023-05-15T04:43:51.929Z,71.77
2023-05-15T04:44:51.921Z,71.67
2023-05-15T04:45:51.964Z,71.37
2023-05-15T04:46:52.006Z,72.08
2023-05-15T04:47:51.919Z,71.97
2023-05-15T04:48:51.870Z,71.23
2023-05-15T04:49:51.869Z,71.33
2023-05-15T04:50:51.878Z,71.47
2023-05-15T04:51:51.844Z,71.73
2023-05-15T04:52:51.843Z,71.13
2023-05-15T04:53:51.833Z,72.14
2023-05-15T04:54:51.803Z,72.14
2023-05-15T04:55:51.809Z,72.55
2023-05-15T04:56:51.845Z,72.55
2023-05-15T04:57:51.773Z,71.94
2023-05-15T04:58:51.757Z,71.94
2023-05-15T04:59:51.763Z,71.91
2023-05-15T05:00:51.735Z,72.21
2023-05-15T05:01:51.759Z,71.70
2023-05-15T05:02:51.802Z,71.60
2023-05-15T05:03:51.815Z,70.89
2023-05-15T05:04:51.717Z,72.21
2023-05-15T05:05:51.688Z,71.30
2023-05-15T05:06:51.676Z,71.20
2023-05-15T05:07:51.673Z,71.20
2023-05-15T05:08:51.657Z,71.20
2023-05-15T05:09:51.658Z,71.57
2023-05-15T05:10:51.637Z,71.57
2023-05-15T05:11:51.632Z,70.96
2023-05-15T05:12:51.611Z,71.26
2023-05-15T05:13:51.607Z,71.16
2023-05-15T05:14:51.582Z,71.23
2023-05-15T05:15:51.624Z,70.86
2023-05-15T05:16:51.563Z,70.36
2023-05-15T05:17:51.564Z,70.62
2023-05-15T05:18:51.591Z,71.03
2023-05-15T05:19:51.605Z,70.42
2023-05-15T05:20:51.526Z,70.52
2023-05-15T05:21:51.521Z,70.12
2023-05-15T05:22:51.499Z,70.39
2023-05-15T05:23:51.483Z,70.22
2023-05-15T05:24:51.489Z,69.81
2023-05-15T05:25:51.498Z,69.81
2023-05-15T05:26:51.473Z,70.22
2023-05-15T05:27:51.466Z,70.09
2023-05-15T05:28:51.440Z,70.39
2023-05-15T05:29:51.445Z,69.98
2023-05-15T05:30:51.418Z,69.27
2023-05-15T05:31:51.519Z,69.38
2023-05-15T05:32:51.416Z,69.51
2023-05-15T05:33:51.377Z,69.48
2023-05-15T05:34:51.419Z,69.27
2023-05-15T05:35:51.366Z,68.97
2023-05-15T05:36:51.364Z,68.97
2023-05-15T05:37:51.376Z,69.14
2023-05-15T05:38:51.330Z,68.67
2023-05-15T05:39:51.320Z,68.97
2023-05-15T05:40:51.300Z,68.94
2023-05-15T05:41:51.320Z,68.74
2023-05-15T05:42:51.294Z,68.63
2023-05-15T05:43:51.294Z,68.43
2023-05-15T05:44:51.273Z,68.03
2023-05-15T05:45:51.240Z,68.63
2023-05-15T05:46:51.272Z,68.43
2023-05-15T05:47:51.282Z,68.63
2023-05-15T05:48:51.292Z,68.63
2023-05-15T05:49:51.206Z,68.54
2023-05-15T05:50:51.237Z,68.10
2023-05-15T05:51:51.192Z,68.40
2023-05-15T05:52:51.160Z,67.90
2023-05-15T05:53:51.169Z,68.20
2023-05-15T05:54:51.230Z,68.00
2023-05-15T05:55:51.137Z,68.30
2023-05-15T05:56:51.218Z,67.90
2023-05-15T05:57:51.113Z,67.90
2023-05-15T05:58:51.103Z,67.80
2023-05-15T05:59:51.134Z,67.60
2023-05-15T06:00:51.123Z,67.69
2023-05-15T06:01:51.196Z,67.69
2023-05-15T06:02:51.238Z,66.86
2023-05-15T06:03:51.094Z,66.75
2023-05-15T06:04:51.039Z,66.65
2023-05-15T06:05:51.038Z,66.05
2023-05-15T06:06:51.112Z,65.75
2023-05-15T06:07:50.998Z,65.84
2023-05-15T06:08:51.024Z,65.64
2023-05-15T06:09:50.977Z,66.05
2023-05-15T06:10:50.973Z,65.44
2023-05-15T06:11:50.974Z,66.05
2023-05-15T06:12:50.949Z,65.75
2023-05-15T06:13:50.963Z,66.05
2023-05-15T06:14:50.961Z,65.84
2023-05-15T06:15:50.910Z,65.75
2023-05-15T06:16:50.945Z,66.35
2023-05-15T06:17:50.917Z,65.54
2023-05-15T06:18:50.922Z,65.64
2023-05-15T06:19:50.871Z,66.15
2023-05-15T06:20:50.885Z,66.35
2023-05-15T06:21:50.864Z,66.35
2023-05-15T06:22:50.864Z,65.75
2023-05-15T06:23:50.821Z,65.64
2023-05-15T06:24:50.816Z,65.41
2023-05-15T06:25:50.838Z,65.31
2023-05-15T06:26:52.357Z,66.32
2023-05-15T06:27:50.809Z,65.75
2023-05-15T06:28:50.780Z,65.84
2023-05-15T06:29:50.784Z,65.71
2023-05-15T06:30:50.818Z,65.61
2023-05-15T06:31:50.777Z,65.21
2023-05-15T06:32:50.886Z,65.51
2023-05-15T06:33:50.716Z,66.22
2023-05-15T06:34:50.714Z,65.71
2023-05-15T06:35:50.698Z,65.71
2023-05-15T06:36:50.678Z,65.71
2023-05-15T06:37:50.705Z,65.68
2023-05-15T06:38:50.750Z,64.98
2023-05-15T06:39:50.657Z,64.75
2023-05-15T06:40:50.665Z,64.07
2023-05-15T06:41:50.629Z,63.96
2023-05-15T06:42:50.618Z,64.17
2023-05-15T06:43:50.619Z,63.93
2023-05-15T06:44:50.616Z,63.84
2023-05-15T06:45:50.599Z,63.43
2023-05-15T06:46:50.680Z,63.93
2023-05-15T06:47:50.605Z,63.84
2023-05-15T06:48:50.564Z,64.04
2023-05-15T06:49:50.548Z,63.84
2023-05-15T06:50:50.572Z,64.21
2023-05-15T06:51:50.535Z,64.11
2023-05-15T06:52:50.506Z,63.81
2023-05-15T06:53:50.534Z,63.60
2023-05-15T06:54:50.656Z,63.60
2023-05-15T06:55:50.482Z,63.90
2023-05-15T06:56:50.474Z,64.01
2023-05-15T06:57:50.477Z,64.21
2023-05-15T06:58:50.457Z,63.78
2023-05-15T06:59:50.433Z,63.37
2023-05-15T07:00:50.642Z,63.04
2023-05-15T07:01:50.546Z,63.14
2023-05-15T07:02:50.477Z,62.71
2023-05-15T07:03:50.406Z,62.04
2023-05-15T07:04:50.430Z,62.64
2023-05-15T07:05:50.369Z,63.14
2023-05-15T07:06:50.368Z,62.61
2023-05-15T07:07:50.375Z,62.64
2023-05-15T07:08:50.346Z,62.04
2023-05-15T07:09:50.347Z,62.10
2023-05-15T07:10:50.385Z,62.10
2023-05-15T07:11:50.304Z,62.41
2023-05-15T07:12:50.307Z,61.70
2023-05-15T07:13:50.828Z,62.27
2023-05-15T07:14:50.390Z,62.05
2023-05-15T07:15:50.273Z,61.54
2023-05-15T07:16:50.293Z,61.65
2023-05-15T07:17:50.336Z,61.04
2023-05-15T07:18:50.304Z,60.87
2023-05-15T07:19:50.226Z,61.10
2023-05-15T07:20:50.227Z,62.10
2023-05-15T07:21:50.220Z,62.10
2023-05-15T07:22:56.136Z,62.21
2023-05-15T07:23:51.443Z,62.41
2023-05-15T07:24:50.162Z,62.07
2023-05-15T07:25:50.153Z,61.98
2023-05-15T07:26:58.201Z,61.65
2023-05-15T07:27:51.183Z,61.44
2023-05-15T07:28:50.120Z,60.74
2023-05-15T07:29:50.109Z,60.71
2023-05-15T07:30:50.120Z,60.91
2023-05-15T07:31:50.086Z,60.51
2023-05-15T07:32:50.266Z,60.61
2023-05-15T07:33:50.103Z,59.67
2023-05-15T07:34:50.054Z,60.48
2023-05-15T07:35:50.110Z,59.58
2023-05-15T07:36:50.037Z,59.27
2023-05-15T07:37:50.072Z,58.97
2023-05-15T07:38:50.043Z,59.05
2023-05-15T07:39:50.058Z,58.75
2023-05-15T07:40:49.987Z,58.64
2023-05-15T07:41:50.004Z,57.74
2023-05-15T07:42:50.243Z,57.74
2023-05-15T07:43:49.968Z,57.61
2023-05-15T07:44:49.970Z,57.84
2023-05-15T07:45:49.994Z,58.31
2023-05-15T07:46:49.920Z,57.98
2023-05-15T07:47:49.957Z,57.51
2023-05-15T07:48:49.901Z,57.41
2023-05-15T07:49:49.907Z,57.59
2023-05-15T07:50:49.900Z,57.59
2023-05-15T07:51:49.863Z,57.11
2023-05-15T07:52:49.858Z,58.54
2023-05-15T07:53:49.851Z,58.57
2023-05-15T07:54:49.851Z,58.31
2023-05-15T07:55:49.826Z,58.31
2023-05-15T07:56:49.827Z,58.39
2023-05-15T07:57:53.496Z,58.39
2023-05-15T07:58:49.828Z,57.86
2023-05-15T07:59:49.809Z,57.26
2023-05-15T08:00:49.775Z,56.96
2023-05-15T08:01:49.755Z,55.82
2023-05-15T08:02:49.917Z,56.83
2023-05-15T08:03:49.834Z,56.23
2023-05-15T08:04:49.746Z,55.93
2023-05-15T08:05:49.744Z,56.00
2023-05-15T08:06:49.713Z,54.39
2023-05-15T08:07:49.724Z,54.70
2023-05-15T08:08:49.701Z,54.10
2023-05-15T08:09:49.668Z,54.39
2023-05-15T08:10:49.655Z,54.39
2023-05-15T08:11:49.664Z,54.00
2023-05-15T08:12:49.637Z,54.70
2023-05-15T08:13:49.684Z,54.47
2023-05-15T08:14:49.715Z,54.87
2023-05-15T08:15:49.643Z,53.87
2023-05-15T08:16:49.625Z,53.57
2023-05-15T08:17:49.620Z,53.94
2023-05-15T08:18:49.595Z,53.94
2023-05-15T08:19:49.590Z,53.05
2023-05-15T08:20:49.617Z,53.02
2023-05-15T08:21:49.554Z,52.64
2023-05-15T08:22:49.527Z,52.92
2023-05-15T08:23:53.472Z,53.62
2023-05-15T08:24:49.508Z,51.84
2023-05-15T08:25:49.485Z,51.94
2023-05-15T08:26:49.492Z,52.12
2023-05-15T08:27:49.475Z,50.62
2023-05-15T08:28:49.478Z,50.34
2023-05-15T08:29:49.449Z,50.04
2023-05-15T08:30:49.590Z,50.22
2023-05-15T08:31:49.527Z,50.12
2023-05-15T08:32:49.537Z,48.72
2023-05-15T08:33:49.408Z,50.20
2023-05-15T08:34:49.408Z,49.90
2023-05-15T08:35:49.401Z,48.79
2023-05-15T08:36:49.384Z,49.49
2023-05-15T08:37:49.408Z,48.60
2023-05-15T08:38:49.348Z,47.79
2023-05-15T08:39:49.372Z,47.60
2023-05-15T08:40:49.343Z,46.97
2023-05-15T08:41:49.322Z,46.77
2023-05-15T08:42:49.315Z,46.99
2023-05-15T08:43:49.287Z,46.19
2023-05-15T08:44:49.299Z,46.69
2023-05-15T08:45:49.280Z,48.19
2023-05-15T08:46:49.381Z,47.60
2023-05-15T08:47:49.369Z,46.30
2023-05-15T08:48:49.283Z,46.80
2023-05-15T08:49:49.258Z,46.77
2023-05-15T08:50:49.228Z,46.75
2023-05-15T08:51:49.214Z,46.05
2023-05-15T08:52:49.192Z,45.85
2023-05-15T08:53:49.231Z,45.45
2023-05-15T08:54:49.172Z,45.37
2023-05-15T08:55:49.175Z,45.15
2023-05-15T08:56:49.167Z,45.75
2023-05-15T08:57:49.163Z,45.35
2023-05-15T08:58:49.127Z,45.27
2023-05-15T08:59:49.150Z,46.75
2023-05-15T09:00:49.132Z,45.87
2023-05-15T09:01:49.158Z,44.78
2023-05-15T09:02:49.187Z,44.17
2023-05-15T09:03:49.159Z,45.15
2023-05-15T09:04:49.062Z,43.27
2023-05-15T09:05:49.085Z,43.07
2023-05-15T09:06:49.072Z,44.07
2023-05-15T09:07:49.027Z,44.07
2023-05-15T09:08:49.041Z,44.07
2023-05-15T09:09:49.038Z,44.97
2023-05-15T09:10:49.016Z,45.20
2023-05-15T09:11:49.020Z,45.20
2023-05-15T09:12:48.975Z,45.47
2023-05-15T09:13:48.971Z,46.75
2023-05-15T09:14:48.981Z,45.63
2023-05-15T09:15:48.938Z,45.15
2023-05-15T09:16:48.984Z,45.37
2023-05-15T09:17:49.022Z,45.57
2023-05-15T09:18:49.106Z,45.85
2023-05-15T09:19:48.916Z,45.25
2023-05-15T09:20:48.896Z,45.23
2023-05-15T09:21:48.879Z,45.21
2023-05-15T09:22:48.876Z,45.10
2023-05-15T09:23:48.888Z,45.51
2023-05-15T09:24:48.855Z,45.31
2023-05-15T09:25:48.852Z,45.29
2023-05-15T09:26:48.846Z,45.89
2023-05-15T09:27:48.818Z,43.99
2023-05-15T09:28:48.826Z,43.29
2023-05-15T09:29:48.848Z,43.31
2023-05-15T09:30:48.795Z,43.81
2023-05-15T09:31:48.881Z,44.91
2023-05-15T09:32:48.840Z,45.29
2023-05-15T09:33:48.750Z,45.36
2023-05-15T09:34:48.755Z,43.67
2023-05-15T09:35:48.759Z,42.49
2023-05-15T09:36:48.727Z,43.67
2023-05-15T09:37:48.707Z,43.27
2023-05-15T09:38:48.720Z,42.87
2023-05-15T09:39:48.723Z,44.07
2023-05-15T09:40:48.711Z,43.37
2023-05-15T09:41:48.710Z,43.47
2023-05-15T09:42:48.667Z,43.47
2023-05-15T09:43:48.680Z,43.29
2023-05-15T09:44:48.624Z,41.50
2023-05-15T09:45:48.656Z,41.60
2023-05-15T09:46:48.728Z,40.92
2023-05-15T09:47:48.732Z,42.11
2023-05-15T09:48:48.671Z,42.51
2023-05-15T09:49:48.582Z,42.81
2023-05-15T09:50:48.580Z,43.99
2023-05-15T09:51:48.576Z,44.21
2023-05-15T09:52:48.565Z,43.91
2023-05-15T09:53:48.547Z,44.51
2023-05-15T09:54:50.407Z,45.59
2023-05-15T09:55:48.522Z,44.38
2023-05-15T09:56:48.501Z,45.59
2023-05-15T09:57:48.497Z,45.48
2023-05-15T09:58:48.492Z,43.79
2023-05-15T09:59:48.479Z,44.76
2023-05-15T10:00:49.582Z,44.87
2023-05-15T10:01:48.490Z,44.27
2023-05-15T10:02:48.489Z,44.07
2023-05-15T10:03:48.444Z,44.19
2023-05-15T10:04:48.445Z,45.17
2023-05-15T10:05:48.518Z,44.29
2023-05-15T10:06:48.412Z,44.17
2023-05-15T10:07:48.393Z,44.17
2023-05-15T10:08:48.401Z,44.35
2023-05-15T10:09:48.370Z,42.85
2023-05-15T10:10:48.342Z,43.15
2023-05-15T10:11:48.357Z,44.15
2023-05-15T10:12:48.429Z,42.85
2023-05-15T10:13:48.330Z,42.95
2023-05-15T10:14:48.305Z,43.27
2023-05-15T10:15:48.330Z,41.71
2023-05-15T10:16:48.304Z,42.61
2023-05-15T10:17:48.335Z,42.91
2023-05-15T10:18:48.293Z,42.99
2023-05-15T10:19:57.786Z,42.61
2023-05-15T10:20:49.239Z,42.79
2023-05-15T10:21:48.253Z,43.17
2023-05-15T10:22:48.289Z,41.39
2023-05-15T10:23:48.252Z,42.67
2023-05-15T10:24:48.198Z,40.56
2023-05-15T10:25:48.189Z,40.56
2023-05-15T10:26:48.195Z,40.38
2023-05-15T10:27:48.232Z,40.98
2023-05-15T10:28:48.181Z,40.58
2023-05-15T10:29:48.198Z,41.28
2023-05-15T10:30:48.140Z,41.77
2023-05-15T10:31:48.212Z,39.98
2023-05-15T10:32:48.166Z,39.98
2023-05-15T10:33:48.093Z,39.88
2023-05-15T10:34:48.076Z,40.86
2023-05-15T10:35:48.094Z,39.76
2023-05-15T10:36:48.063Z,40.86
2023-05-15T10:37:48.059Z,40.86
2023-05-15T10:38:48.055Z,41.33
2023-05-15T10:39:48.053Z,40.14
2023-05-15T10:40:48.043Z,40.44
2023-05-15T10:41:48.023Z,40.72
2023-05-15T10:42:48.001Z,40.04
2023-05-15T10:43:47.996Z,39.83
2023-05-15T10:44:47.991Z,40.20
2023-05-15T10:45:47.958Z,40.70
2023-05-15T10:46:48.035Z,41.09
2023-05-15T10:47:48.168Z,40.92
2023-05-15T10:48:47.932Z,40.30
2023-05-15T10:49:47.929Z,39.70
2023-05-15T10:50:47.940Z,38.41
2023-05-15T10:51:47.893Z,37.12
2023-05-15T10:52:47.895Z,38.51
2023-05-15T10:53:47.884Z,38.13
2023-05-15T10:54:47.893Z,37.12
2023-05-15T10:55:47.974Z,38.51
2023-05-15T10:56:49.357Z,38.89
2023-05-15T10:57:47.830Z,38.99
2023-05-15T10:58:47.820Z,38.21
2023-05-15T10:59:47.819Z,38.81
2023-05-15T11:00:47.804Z,38.59
2023-05-15T11:01:47.813Z,38.81
2023-05-15T11:02:47.836Z,39.42
2023-05-15T11:03:49.421Z,38.63
2023-05-15T11:04:47.872Z,39.83
2023-05-15T11:05:47.749Z,39.31
2023-05-15T11:06:47.768Z,38.20
2023-05-15T11:07:47.743Z,38.51
2023-05-15T11:08:47.747Z,38.69
2023-05-15T11:09:47.698Z,39.07
2023-05-15T11:10:47.740Z,37.98
2023-05-15T11:11:47.692Z,38.57
2023-05-15T11:12:47.700Z,38.69
2023-05-15T11:13:47.664Z,39.18
2023-05-15T11:14:47.640Z,39.18
2023-05-15T11:15:47.633Z,38.79
2023-05-15T11:16:47.697Z,37.70
2023-05-15T11:17:47.652Z,38.81
2023-05-15T11:18:47.656Z,39.44
2023-05-15T11:19:47.609Z,39.42
2023-05-15T11:20:47.618Z,39.42
2023-05-15T11:21:47.579Z,39.32
2023-05-15T11:22:47.563Z,39.53
2023-05-15T11:23:47.546Z,40.52
2023-05-15T11:24:47.543Z,40.00
2023-05-15T11:25:47.543Z,40.58
2023-05-15T11:26:47.575Z,39.67
2023-05-15T11:27:47.526Z,41.53
2023-05-15T11:28:47.500Z,40.86
2023-05-15T11:29:47.478Z,40.86
2023-05-15T11:30:47.493Z,39.95
2023-05-15T11:31:47.481Z,39.15
2023-05-15T11:32:47.551Z,40.24
2023-05-15T11:33:47.432Z,39.33
2023-05-15T11:34:47.441Z,39.35
2023-05-15T11:35:47.419Z,38.95
2023-05-15T11:36:47.494Z,40.12
2023-05-15T11:37:47.399Z,40.33
2023-05-15T11:38:47.405Z,39.05
2023-05-15T11:39:47.372Z,39.47
2023-05-15T11:40:47.409Z,40.05
2023-05-15T11:41:47.359Z,38.65
2023-05-15T11:42:47.377Z,39.67
2023-05-15T11:43:47.368Z,39.25
2023-05-15T11:44:47.317Z,38.67
2023-05-15T11:45:47.304Z,40.78
2023-05-15T11:46:47.368Z,40.18
2023-05-15T11:47:47.347Z,39.69
2023-05-15T11:48:47.297Z,40.88
2023-05-15T11:49:47.302Z,39.83
2023-05-15T11:50:47.266Z,41.02
2023-05-15T11:51:47.280Z,41.20
2023-05-15T11:52:47.254Z,40.52
2023-05-15T11:53:47.277Z,40.32
2023-05-15T11:54:47.235Z,41.22
2023-05-15T11:55:47.196Z,42.33
2023-05-15T11:56:47.197Z,41.66
2023-05-15T11:57:47.174Z,41.47
2023-05-15T11:58:47.218Z,41.50
2023-05-15T11:59:47.221Z,42.40
2023-05-15T12:00:47.158Z,43.09
2023-05-15T12:01:47.142Z,42.99
2023-05-15T12:02:47.177Z,42.79
2023-05-15T12:03:47.330Z,42.87
2023-05-15T12:04:47.140Z,42.40
2023-05-15T12:05:57.587Z,43.03
2023-05-15T12:06:48.103Z,43.31
2023-05-15T12:07:47.111Z,43.43
2023-05-15T12:08:47.079Z,43.53
2023-05-15T12:09:47.053Z,44.23
2023-05-15T12:10:47.053Z,44.01
2023-05-15T12:11:47.045Z,44.41
2023-05-15T12:12:47.036Z,44.69
2023-05-15T12:13:55.345Z,44.07
2023-05-15T12:14:47.008Z,43.97
2023-05-15T12:15:47.009Z,43.97
2023-05-15T12:16:46.989Z,43.89
2023-05-15T12:17:47.073Z,44.83
2023-05-15T12:18:46.965Z,44.91
2023-05-15T12:19:46.962Z,44.19
2023-05-15T12:20:46.953Z,44.09
2023-05-15T12:21:46.932Z,44.17
2023-05-15T12:22:46.931Z,43.79
2023-05-15T12:23:53.303Z,43.87
2023-05-15T12:24:47.900Z,43.87
2023-05-15T12:25:46.899Z,44.15
2023-05-15T12:26:46.864Z,44.35
2023-05-15T12:27:46.867Z,44.02
2023-05-15T12:28:46.881Z,43.43
2023-05-15T12:29:46.870Z,42.03
2023-05-15T12:30:46.826Z,41.63
2023-05-15T12:31:46.920Z,41.63
2023-05-15T12:32:46.843Z,39.96
2023-05-15T12:33:46.807Z,41.66
2023-05-15T12:34:46.788Z,41.24
2023-05-15T12:35:46.784Z,41.06
2023-05-15T12:36:46.791Z,42.83
2023-05-15T12:37:46.764Z,40.62
2023-05-15T12:38:46.734Z,40.34
2023-05-15T12:39:46.736Z,40.44
2023-05-15T12:40:46.727Z,39.84
2023-05-15T12:41:47.868Z,39.66
2023-05-15T12:42:46.730Z,39.46
2023-05-15T12:43:46.685Z,39.04
2023-05-15T12:44:46.683Z,38.84
2023-05-15T12:45:46.717Z,38.75
2023-05-15T12:46:46.663Z,40.52
2023-05-15T12:47:46.712Z,40.60
2023-05-15T12:48:46.635Z,38.61
2023-05-15T12:49:46.618Z,39.11
2023-05-15T12:50:46.615Z,38.81
2023-05-15T12:51:46.618Z,38.41
2023-05-15T12:52:46.602Z,38.49